< < Back
Terminal Aerodrome Forecast


Current Version              Previous Versions:   1  2  3  4  5  6  7  8  9  

Terminal Aerodrome Forecast

759
FTUS44 KMRX 050520
TAFCHA
TAF
KCHA 050520Z 0506/0606 34007KT P6SM SKC
     FM051400 02006KT P6SM SKC=

Latest METAR

562
SAUS80 KWBC 060200 RRA
MTRCHA
METAR KCHA 060153Z 00000KT 10SM SCT250 02/M04 A3040 RMK AO2 SLP299
T00221039


USA.gov is the U.S. government's official web portal to all federal, state and local government web resources and services.